Terminal Aerodrome Forecast
Issued by NWS Central Illinois

Home | Current Version | Previous Version | Text Only | Print | Product List | Glossary On
Versions: 1 2 3 4 5 6 7 8 9 10 11 12 13 14 15 16 17 18 19 20 21 22 23 24 25 26 27 28
913
FTUS43 KILX 250733 AAC
TAFSPI
TAF AMD
KSPI 250733Z 2508/2606 12012KT P6SM VCSH FEW006 BKN090
     FM250900 10009KT 4SM BR VCSH SCT012 BKN050
     FM251300 01005KT P6SM SCT015 BKN050
     FM251500 01005KT P6SM SCT040=

USA.gov is the U.S. government's official web portal to all federal, state and local government web resources and services.